sensor_id;sensor_type;location;lat;lon;timestamp;P1;durP1;ratioP1;P2;durP2;ratioP2
14377;SDS011;7272;53.668;9.578;2022-12-20T00:02:28;8.50;;;7.60;;
14377;SDS011;7272;53.668;9.578;2022-12-20T00:05:34;8.30;;;7.50;;
14377;SDS011;7272;53.668;9.578;2022-12-20T00:08:38;8.70;;;7.90;;
14377;SDS011;7272;53.668;9.578;2022-12-20T00:11:41;7.57;;;6.87;;
14377;SDS011;7272;53.668;9.578;2022-12-20T00:14:46;8.40;;;7.33;;
14377;SDS011;7272;53.668;9.578;2022-12-20T00:17:49;7.70;;;7.00;;
14377;SDS011;7272;53.668;9.578;2022-12-20T00:20:56;7.53;;;6.93;;
14377;SDS011;7272;53.668;9.578;2022-12-20T00:24:00;8.87;;;7.83;;
14377;SDS011;7272;53.668;9.578;2022-12-20T00:27:03;9.83;;;8.20;;
14377;SDS011;7272;53.668;9.578;2022-12-20T00:30:06;8.27;;;7.47;;
14377;SDS011;7272;53.668;9.578;2022-12-20T00:33:09;8.00;;;7.30;;
14377;SDS011;7272;53.668;9.578;2022-12-20T00:36:13;8.30;;;7.53;;
14377;SDS011;7272;53.668;9.578;2022-12-20T00:39:18;7.73;;;6.90;;
14377;SDS011;7272;53.668;9.578;2022-12-20T00:42:20;8.93;;;8.13;;
14377;SDS011;7272;53.668;9.578;2022-12-20T00:45:23;8.60;;;7.77;;
14377;SDS011;7272;53.668;9.578;2022-12-20T00:48:25;7.53;;;6.70;;
14377;SDS011;7272;53.668;9.578;2022-12-20T00:51:29;7.93;;;7.07;;
14377;SDS011;7272;53.668;9.578;2022-12-20T00:54:35;7.73;;;6.97;;
14377;SDS011;7272;53.668;9.578;2022-12-20T00:57:37;7.47;;;6.77;;
14377;SDS011;7272;53.668;9.578;2022-12-20T01:00:40;8.33;;;7.53;;
14377;SDS011;7272;53.668;9.578;2022-12-20T01:03:42;7.80;;;7.20;;
14377;SDS011;7272;53.668;9.578;2022-12-20T01:06:47;7.50;;;6.87;;
14377;SDS011;7272;53.668;9.578;2022-12-20T01:09:51;8.20;;;7.40;;
14377;SDS011;7272;53.668;9.578;2022-12-20T01:12:53;7.90;;;7.13;;
14377;SDS011;7272;53.668;9.578;2022-12-20T01:15:56;7.90;;;7.20;;
14377;SDS011;7272;53.668;9.578;2022-12-20T01:19:06;7.60;;;6.80;;
14377;SDS011;7272;53.668;9.578;2022-12-20T01:22:10;7.87;;;7.07;;
14377;SDS011;7272;53.668;9.578;2022-12-20T01:25:14;8.00;;;7.30;;
14377;SDS011;7272;53.668;9.578;2022-12-20T01:28:16;7.30;;;6.70;;
14377;SDS011;7272;53.668;9.578;2022-12-20T01:31:19;8.07;;;7.37;;
14377;SDS011;7272;53.668;9.578;2022-12-20T01:34:23;8.00;;;7.20;;
14377;SDS011;7272;53.668;9.578;2022-12-20T01:37:25;7.43;;;6.70;;
14377;SDS011;7272;53.668;9.578;2022-12-20T01:40:29;7.60;;;6.90;;
14377;SDS011;7272;53.668;9.578;2022-12-20T01:43:44;7.00;;;6.37;;
14377;SDS011;7272;53.668;9.578;2022-12-20T01:46:50;6.70;;;6.20;;
14377;SDS011;7272;53.668;9.578;2022-12-20T01:49:53;7.07;;;6.47;;
14377;SDS011;7272;53.668;9.578;2022-12-20T01:52:58;6.90;;;6.30;;
14377;SDS011;7272;53.668;9.578;2022-12-20T01:56:05;7.27;;;6.60;;
14377;SDS011;7272;53.668;9.578;2022-12-20T01:59:09;7.23;;;6.63;;
14377;SDS011;7272;53.668;9.578;2022-12-20T02:02:13;7.57;;;6.83;;
14377;SDS011;7272;53.668;9.578;2022-12-20T02:05:17;6.60;;;6.00;;
14377;SDS011;7272;53.668;9.578;2022-12-20T02:08:21;6.67;;;6.17;;
14377;SDS011;7272;53.668;9.578;2022-12-20T02:11:31;7.27;;;6.43;;
14377;SDS011;7272;53.668;9.578;2022-12-20T02:14:56;6.67;;;6.07;;
14377;SDS011;7272;53.668;9.578;2022-12-20T02:18:14;6.60;;;5.97;;
14377;SDS011;7272;53.668;9.578;2022-12-20T02:21:24;7.10;;;6.50;;
14377;SDS011;7272;53.668;9.578;2022-12-20T02:24:38;6.93;;;6.20;;
14377;SDS011;7272;53.668;9.578;2022-12-20T02:28:02;7.17;;;6.47;;
14377;SDS011;7272;53.668;9.578;2022-12-20T02:31:17;7.13;;;6.43;;
14377;SDS011;7272;53.668;9.578;2022-12-20T02:34:25;6.47;;;5.93;;
14377;SDS011;7272;53.668;9.578;2022-12-20T02:37:29;7.20;;;6.50;;
14377;SDS011;7272;53.668;9.578;2022-12-20T02:40:33;6.60;;;5.93;;
14377;SDS011;7272;53.668;9.578;2022-12-20T02:43:40;6.57;;;5.97;;
14377;SDS011;7272;53.668;9.578;2022-12-20T02:47:04;6.67;;;5.93;;
14377;SDS011;7272;53.668;9.578;2022-12-20T02:50:10;6.97;;;6.27;;
14377;SDS011;7272;53.668;9.578;2022-12-20T02:53:15;6.20;;;5.70;;
14377;SDS011;7272;53.668;9.578;2022-12-20T02:56:19;6.33;;;5.77;;
14377;SDS011;7272;53.668;9.578;2022-12-20T02:59:33;6.70;;;6.10;;
14377;SDS011;7272;53.668;9.578;2022-12-20T03:02:41;6.13;;;5.63;;
14377;SDS011;7272;53.668;9.578;2022-12-20T03:06:02;6.63;;;5.43;;
14377;SDS011;7272;53.668;9.578;2022-12-20T03:09:05;6.60;;;6.00;;
14377;SDS011;7272;53.668;9.578;2022-12-20T03:12:10;5.70;;;5.20;;
14377;SDS011;7272;53.668;9.578;2022-12-20T03:15:15;5.93;;;5.43;;
14377;SDS011;7272;53.668;9.578;2022-12-20T03:18:21;6.30;;;5.70;;
14377;SDS011;7272;53.668;9.578;2022-12-20T03:21:23;6.43;;;5.83;;
14377;SDS011;7272;53.668;9.578;2022-12-20T03:24:26;6.93;;;6.10;;
14377;SDS011;7272;53.668;9.578;2022-12-20T03:27:29;6.90;;;6.30;;
14377;SDS011;7272;53.668;9.578;2022-12-20T03:30:33;6.63;;;6.10;;
14377;SDS011;7272;53.668;9.578;2022-12-20T03:33:37;5.80;;;5.30;;
14377;SDS011;7272;53.668;9.578;2022-12-20T03:36:41;6.07;;;5.47;;
14377;SDS011;7272;53.668;9.578;2022-12-20T03:39:44;6.53;;;6.00;;
14377;SDS011;7272;53.668;9.578;2022-12-20T03:42:46;7.13;;;6.43;;
14377;SDS011;7272;53.668;9.578;2022-12-20T03:45:49;6.00;;;5.50;;
14377;SDS011;7272;53.668;9.578;2022-12-20T03:48:53;6.60;;;6.03;;
14377;SDS011;7272;53.668;9.578;2022-12-20T03:51:56;6.73;;;6.13;;
14377;SDS011;7272;53.668;9.578;2022-12-20T03:54:59;7.23;;;6.07;;
14377;SDS011;7272;53.668;9.578;2022-12-20T03:58:12;6.77;;;6.03;;
14377;SDS011;7272;53.668;9.578;2022-12-20T04:01:15;5.90;;;5.40;;
14377;SDS011;7272;53.668;9.578;2022-12-20T04:04:21;6.53;;;5.90;;
14377;SDS011;7272;53.668;9.578;2022-12-20T04:07:24;5.97;;;5.40;;
14377;SDS011;7272;53.668;9.578;2022-12-20T04:10:27;6.03;;;5.43;;
14377;SDS011;7272;53.668;9.578;2022-12-20T04:13:30;6.20;;;5.40;;
14377;SDS011;7272;53.668;9.578;2022-12-20T04:16:33;5.63;;;5.10;;
14377;SDS011;7272;53.668;9.578;2022-12-20T04:19:37;6.43;;;5.83;;
14377;SDS011;7272;53.668;9.578;2022-12-20T04:22:41;5.73;;;5.33;;
14377;SDS011;7272;53.668;9.578;2022-12-20T04:25:44;5.67;;;5.17;;
14377;SDS011;7272;53.668;9.578;2022-12-20T04:28:47;5.53;;;5.03;;
14377;SDS011;7272;53.668;9.578;2022-12-20T04:31:49;6.17;;;5.30;;
14377;SDS011;7272;53.668;9.578;2022-12-20T04:34:54;5.97;;;5.47;;
14377;SDS011;7272;53.668;9.578;2022-12-20T04:37:56;5.90;;;5.40;;
14377;SDS011;7272;53.668;9.578;2022-12-20T04:40:59;6.20;;;5.60;;
14377;SDS011;7272;53.668;9.578;2022-12-20T04:44:11;6.33;;;5.73;;
14377;SDS011;7272;53.668;9.578;2022-12-20T04:47:14;6.57;;;6.07;;
14377;SDS011;7272;53.668;9.578;2022-12-20T04:50:18;6.43;;;5.67;;
14377;SDS011;7272;53.668;9.578;2022-12-20T04:53:21;6.50;;;5.90;;
14377;SDS011;7272;53.668;9.578;2022-12-20T04:56:42;6.70;;;6.00;;
14377;SDS011;7272;53.668;9.578;2022-12-20T04:59:50;6.90;;;6.20;;
14377;SDS011;7272;53.668;9.578;2022-12-20T05:02:53;6.57;;;5.97;;
14377;SDS011;7272;53.668;9.578;2022-12-20T05:06:00;8.13;;;6.63;;
14377;SDS011;7272;53.668;9.578;2022-12-20T05:09:03;5.87;;;5.30;;
14377;SDS011;7272;53.668;9.578;2022-12-20T05:12:07;6.00;;;5.50;;
14377;SDS011;7272;53.668;9.578;2022-12-20T05:15:10;6.43;;;5.60;;
14377;SDS011;7272;53.668;9.578;2022-12-20T05:18:13;6.70;;;6.17;;
14377;SDS011;7272;53.668;9.578;2022-12-20T05:21:24;6.70;;;6.10;;
14377;SDS011;7272;53.668;9.578;2022-12-20T05:24:45;6.70;;;6.10;;
14377;SDS011;7272;53.668;9.578;2022-12-20T05:28:08;6.60;;;6.00;;
14377;SDS011;7272;53.668;9.578;2022-12-20T05:31:11;6.83;;;6.20;;
14377;SDS011;7272;53.668;9.578;2022-12-20T05:34:13;6.27;;;5.73;;
14377;SDS011;7272;53.668;9.578;2022-12-20T05:37:23;6.80;;;6.20;;
14377;SDS011;7272;53.668;9.578;2022-12-20T05:40:26;6.97;;;6.37;;
14377;SDS011;7272;53.668;9.578;2022-12-20T05:43:29;6.83;;;6.30;;
14377;SDS011;7272;53.668;9.578;2022-12-20T05:46:32;6.43;;;5.83;;
14377;SDS011;7272;53.668;9.578;2022-12-20T05:49:38;6.30;;;5.70;;
14377;SDS011;7272;53.668;9.578;2022-12-20T05:52:44;7.43;;;6.23;;
14377;SDS011;7272;53.668;9.578;2022-12-20T05:55:52;5.77;;;5.30;;
14377;SDS011;7272;53.668;9.578;2022-12-20T05:58:59;7.37;;;6.20;;
14377;SDS011;7272;53.668;9.578;2022-12-20T06:02:02;5.97;;;5.47;;
14377;SDS011;7272;53.668;9.578;2022-12-20T06:05:07;6.17;;;5.67;;
14377;SDS011;7272;53.668;9.578;2022-12-20T06:08:11;6.83;;;6.13;;
14377;SDS011;7272;53.668;9.578;2022-12-20T06:11:15;6.33;;;5.73;;
14377;SDS011;7272;53.668;9.578;2022-12-20T06:14:32;6.10;;;5.60;;
14377;SDS011;7272;53.668;9.578;2022-12-20T06:17:35;7.27;;;6.67;;
14377;SDS011;7272;53.668;9.578;2022-12-20T06:20:38;7.20;;;6.50;;
14377;SDS011;7272;53.668;9.578;2022-12-20T06:23:44;6.87;;;6.27;;
14377;SDS011;7272;53.668;9.578;2022-12-20T06:26:47;7.63;;;6.50;;
14377;SDS011;7272;53.668;9.578;2022-12-20T06:29:51;7.50;;;6.80;;
14377;SDS011;7272;53.668;9.578;2022-12-20T06:32:57;7.43;;;6.60;;
14377;SDS011;7272;53.668;9.578;2022-12-20T06:35:59;7.40;;;6.20;;
14377;SDS011;7272;53.668;9.578;2022-12-20T06:39:03;8.30;;;6.73;;
14377;SDS011;7272;53.668;9.578;2022-12-20T06:42:09;7.27;;;6.60;;
14377;SDS011;7272;53.668;9.578;2022-12-20T06:45:13;7.37;;;6.67;;
14377;SDS011;7272;53.668;9.578;2022-12-20T06:48:16;7.43;;;6.73;;
14377;SDS011;7272;53.668;9.578;2022-12-20T06:51:22;7.30;;;6.70;;
14377;SDS011;7272;53.668;9.578;2022-12-20T06:54:26;6.70;;;6.20;;
14377;SDS011;7272;53.668;9.578;2022-12-20T06:57:28;6.60;;;6.00;;
14377;SDS011;7272;53.668;9.578;2022-12-20T07:00:31;7.17;;;6.03;;
14377;SDS011;7272;53.668;9.578;2022-12-20T07:03:34;6.80;;;6.10;;
14377;SDS011;7272;53.668;9.578;2022-12-20T07:06:37;7.30;;;6.60;;
14377;SDS011;7272;53.668;9.578;2022-12-20T07:09:41;6.00;;;5.50;;
14377;SDS011;7272;53.668;9.578;2022-12-20T07:12:43;6.87;;;6.17;;
14377;SDS011;7272;53.668;9.578;2022-12-20T07:15:46;6.60;;;6.00;;
14377;SDS011;7272;53.668;9.578;2022-12-20T07:18:49;7.70;;;7.00;;
14377;SDS011;7272;53.668;9.578;2022-12-20T07:21:51;7.83;;;7.23;;
14377;SDS011;7272;53.668;9.578;2022-12-20T07:24:55;7.43;;;6.73;;
14377;SDS011;7272;53.668;9.578;2022-12-20T07:27:58;7.93;;;7.23;;
14377;SDS011;7272;53.668;9.578;2022-12-20T07:31:00;8.13;;;7.37;;
14377;SDS011;7272;53.668;9.578;2022-12-20T07:34:04;6.80;;;6.20;;
14377;SDS011;7272;53.668;9.578;2022-12-20T07:37:06;7.30;;;6.70;;
14377;SDS011;7272;53.668;9.578;2022-12-20T07:40:12;7.30;;;6.67;;
14377;SDS011;7272;53.668;9.578;2022-12-20T07:43:15;7.27;;;6.57;;
14377;SDS011;7272;53.668;9.578;2022-12-20T07:46:18;7.10;;;6.50;;
14377;SDS011;7272;53.668;9.578;2022-12-20T07:49:21;7.00;;;6.50;;
14377;SDS011;7272;53.668;9.578;2022-12-20T07:52:23;7.00;;;6.40;;
14377;SDS011;7272;53.668;9.578;2022-12-20T07:55:30;7.20;;;6.50;;
14377;SDS011;7272;53.668;9.578;2022-12-20T07:58:33;7.50;;;6.90;;
14377;SDS011;7272;53.668;9.578;2022-12-20T08:01:38;6.80;;;6.23;;
14377;SDS011;7272;53.668;9.578;2022-12-20T08:04:41;7.87;;;7.17;;
14377;SDS011;7272;53.668;9.578;2022-12-20T08:07:44;7.00;;;6.30;;
14377;SDS011;7272;53.668;9.578;2022-12-20T08:10:49;6.60;;;6.00;;
14377;SDS011;7272;53.668;9.578;2022-12-20T08:13:52;6.97;;;6.27;;
14377;SDS011;7272;53.668;9.578;2022-12-20T08:16:54;7.37;;;6.67;;
14377;SDS011;7272;53.668;9.578;2022-12-20T08:19:57;6.90;;;6.30;;
14377;SDS011;7272;53.668;9.578;2022-12-20T08:23:01;7.43;;;6.83;;
14377;SDS011;7272;53.668;9.578;2022-12-20T08:26:05;7.33;;;6.50;;
14377;SDS011;7272;53.668;9.578;2022-12-20T08:29:08;6.97;;;6.27;;
14377;SDS011;7272;53.668;9.578;2022-12-20T08:32:10;6.50;;;5.90;;
14377;SDS011;7272;53.668;9.578;2022-12-20T08:35:13;6.77;;;6.13;;
14377;SDS011;7272;53.668;9.578;2022-12-20T08:38:16;6.10;;;5.60;;
14377;SDS011;7272;53.668;9.578;2022-12-20T08:41:20;5.97;;;5.50;;
14377;SDS011;7272;53.668;9.578;2022-12-20T08:44:23;6.50;;;5.90;;
14377;SDS011;7272;53.668;9.578;2022-12-20T08:47:27;6.10;;;5.37;;
14377;SDS011;7272;53.668;9.578;2022-12-20T08:50:30;5.80;;;5.30;;
14377;SDS011;7272;53.668;9.578;2022-12-20T08:53:33;5.27;;;4.87;;
14377;SDS011;7272;53.668;9.578;2022-12-20T08:56:38;6.43;;;5.30;;
14377;SDS011;7272;53.668;9.578;2022-12-20T08:59:41;5.40;;;4.90;;
14377;SDS011;7272;53.668;9.578;2022-12-20T09:02:43;6.13;;;5.40;;
14377;SDS011;7272;53.668;9.578;2022-12-20T09:05:47;4.97;;;4.63;;
14377;SDS011;7272;53.668;9.578;2022-12-20T09:08:50;5.77;;;5.30;;
14377;SDS011;7272;53.668;9.578;2022-12-20T09:11:56;6.10;;;5.50;;
14377;SDS011;7272;53.668;9.578;2022-12-20T09:14:59;6.57;;;6.07;;
14377;SDS011;7272;53.668;9.578;2022-12-20T09:18:02;5.90;;;5.40;;
14377;SDS011;7272;53.668;9.578;2022-12-20T09:21:05;6.40;;;5.90;;
14377;SDS011;7272;53.668;9.578;2022-12-20T09:24:08;5.60;;;5.20;;
14377;SDS011;7272;53.668;9.578;2022-12-20T09:27:12;5.67;;;5.17;;
14377;SDS011;7272;53.668;9.578;2022-12-20T09:30:15;5.80;;;5.30;;
14377;SDS011;7272;53.668;9.578;2022-12-20T09:33:18;6.17;;;5.67;;
14377;SDS011;7272;53.668;9.578;2022-12-20T09:36:20;6.47;;;5.83;;
14377;SDS011;7272;53.668;9.578;2022-12-20T09:39:24;6.93;;;6.33;;
14377;SDS011;7272;53.668;9.578;2022-12-20T09:42:28;7.10;;;6.37;;
14377;SDS011;7272;53.668;9.578;2022-12-20T09:45:33;7.73;;;7.03;;
14377;SDS011;7272;53.668;9.578;2022-12-20T09:48:37;7.20;;;6.50;;
14377;SDS011;7272;53.668;9.578;2022-12-20T09:51:43;7.97;;;7.17;;
14377;SDS011;7272;53.668;9.578;2022-12-20T09:55:01;7.33;;;6.63;;
14377;SDS011;7272;53.668;9.578;2022-12-20T09:58:20;8.47;;;7.43;;
14377;SDS011;7272;53.668;9.578;2022-12-20T10:01:37;8.00;;;7.30;;
14377;SDS011;7272;53.668;9.578;2022-12-20T10:04:43;7.30;;;6.43;;
14377;SDS011;7272;53.668;9.578;2022-12-20T10:07:48;7.67;;;6.90;;
14377;SDS011;7272;53.668;9.578;2022-12-20T10:10:56;7.73;;;6.90;;
14377;SDS011;7272;53.668;9.578;2022-12-20T10:14:06;7.37;;;6.67;;
14377;SDS011;7272;53.668;9.578;2022-12-20T10:17:21;7.97;;;7.17;;
14377;SDS011;7272;53.668;9.578;2022-12-20T10:20:40;7.37;;;6.67;;
14377;SDS011;7272;53.668;9.578;2022-12-20T10:23:55;7.17;;;6.53;;
14377;SDS011;7272;53.668;9.578;2022-12-20T10:27:03;6.63;;;6.03;;
14377;SDS011;7272;53.668;9.578;2022-12-20T10:30:15;7.20;;;6.60;;
14377;SDS011;7272;53.668;9.578;2022-12-20T10:33:21;7.27;;;6.67;;
14377;SDS011;7272;53.668;9.578;2022-12-20T10:36:25;6.40;;;5.80;;
14377;SDS011;7272;53.668;9.578;2022-12-20T10:39:38;5.63;;;5.13;;
14377;SDS011;7272;53.668;9.578;2022-12-20T10:42:42;5.77;;;5.27;;
14377;SDS011;7272;53.668;9.578;2022-12-20T10:45:55;6.37;;;5.80;;
14377;SDS011;7272;53.668;9.578;2022-12-20T10:49:19;6.80;;;6.20;;
14377;SDS011;7272;53.668;9.578;2022-12-20T10:52:23;6.47;;;5.93;;
14377;SDS011;7272;53.668;9.578;2022-12-20T10:55:33;7.27;;;6.00;;
14377;SDS011;7272;53.668;9.578;2022-12-20T10:58:37;6.37;;;5.77;;
14377;SDS011;7272;53.668;9.578;2022-12-20T11:01:42;6.27;;;5.70;;
14377;SDS011;7272;53.668;9.578;2022-12-20T11:04:55;6.50;;;5.87;;
14377;SDS011;7272;53.668;9.578;2022-12-20T11:08:06;6.47;;;5.80;;
14377;SDS011;7272;53.668;9.578;2022-12-20T11:11:14;6.07;;;5.20;;
14377;SDS011;7272;53.668;9.578;2022-12-20T11:14:19;5.53;;;5.03;;
14377;SDS011;7272;53.668;9.578;2022-12-20T11:17:27;5.77;;;5.27;;
14377;SDS011;7272;53.668;9.578;2022-12-20T11:20:34;6.00;;;5.40;;
14377;SDS011;7272;53.668;9.578;2022-12-20T11:23:44;6.23;;;5.73;;
14377;SDS011;7272;53.668;9.578;2022-12-20T11:26:58;5.73;;;5.23;;
14377;SDS011;7272;53.668;9.578;2022-12-20T11:30:16;6.07;;;5.10;;
14377;SDS011;7272;53.668;9.578;2022-12-20T11:37:01;5.10;;;4.70;;
14377;SDS011;7272;53.668;9.578;2022-12-20T11:40:26;5.60;;;5.20;;
14377;SDS011;7272;53.668;9.578;2022-12-20T11:43:40;4.90;;;4.50;;
14377;SDS011;7272;53.668;9.578;2022-12-20T11:47:03;5.20;;;4.80;;
14377;SDS011;7272;53.668;9.578;2022-12-20T11:50:19;5.80;;;4.80;;
14377;SDS011;7272;53.668;9.578;2022-12-20T11:53:36;5.57;;;5.07;;
14377;SDS011;7272;53.668;9.578;2022-12-20T11:56:43;5.50;;;5.00;;
14377;SDS011;7272;53.668;9.578;2022-12-20T11:59:49;5.07;;;4.67;;
14377;SDS011;7272;53.668;9.578;2022-12-20T12:02:58;5.23;;;4.80;;
14377;SDS011;7272;53.668;9.578;2022-12-20T12:06:08;5.10;;;4.60;;
14377;SDS011;7272;53.668;9.578;2022-12-20T12:09:21;5.87;;;5.37;;
14377;SDS011;7272;53.668;9.578;2022-12-20T12:12:30;5.23;;;4.83;;
14377;SDS011;7272;53.668;9.578;2022-12-20T12:15:35;5.30;;;4.90;;
14377;SDS011;7272;53.668;9.578;2022-12-20T12:18:43;5.93;;;5.43;;
14377;SDS011;7272;53.668;9.578;2022-12-20T12:21:48;5.97;;;5.37;;
14377;SDS011;7272;53.668;9.578;2022-12-20T12:24:58;5.77;;;5.20;;
14377;SDS011;7272;53.668;9.578;2022-12-20T12:28:02;5.47;;;4.97;;
14377;SDS011;7272;53.668;9.578;2022-12-20T12:31:06;5.47;;;4.97;;
14377;SDS011;7272;53.668;9.578;2022-12-20T12:34:14;6.13;;;5.53;;
14377;SDS011;7272;53.668;9.578;2022-12-20T12:37:40;6.00;;;5.37;;
14377;SDS011;7272;53.668;9.578;2022-12-20T12:41:19;5.70;;;5.20;;
14377;SDS011;7272;53.668;9.578;2022-12-20T12:44:53;5.57;;;5.17;;
14377;SDS011;7272;53.668;9.578;2022-12-20T12:47:59;6.27;;;5.70;;
14377;SDS011;7272;53.668;9.578;2022-12-20T12:51:07;6.80;;;6.20;;
14377;SDS011;7272;53.668;9.578;2022-12-20T12:54:15;6.30;;;5.80;;
14377;SDS011;7272;53.668;9.578;2022-12-20T12:57:20;7.18;;;6.47;;
14377;SDS011;7272;53.668;9.578;2022-12-20T13:04:08;7.03;;;6.32;;
14377;SDS011;7272;53.668;9.578;2022-12-20T13:07:27;5.87;;;5.40;;
14377;SDS011;7272;53.668;9.578;2022-12-20T13:17:49;6.33;;;5.73;;
14377;SDS011;7272;53.668;9.578;2022-12-20T13:24:36;7.83;;;6.20;;
14377;SDS011;7272;53.668;9.578;2022-12-20T13:27:47;6.70;;;6.07;;
14377;SDS011;7272;53.668;9.578;2022-12-20T13:34:35;6.40;;;5.80;;
14377;SDS011;7272;53.668;9.578;2022-12-20T13:37:50;6.33;;;5.63;;
14377;SDS011;7272;53.668;9.578;2022-12-20T13:40:55;6.37;;;5.77;;
14377;SDS011;7272;53.668;9.578;2022-12-20T13:44:07;6.67;;;6.07;;
14377;SDS011;7272;53.668;9.578;2022-12-20T13:47:36;6.90;;;6.20;;
14377;SDS011;7272;53.668;9.578;2022-12-20T13:50:46;6.93;;;6.33;;
14377;SDS011;7272;53.668;9.578;2022-12-20T13:53:52;6.97;;;6.27;;
14377;SDS011;7272;53.668;9.578;2022-12-20T13:56:57;7.80;;;7.10;;
14377;SDS011;7272;53.668;9.578;2022-12-20T14:00:03;7.33;;;6.67;;
14377;SDS011;7272;53.668;9.578;2022-12-20T14:03:12;7.60;;;6.90;;
14377;SDS011;7272;53.668;9.578;2022-12-20T14:06:23;7.33;;;6.63;;
14377;SDS011;7272;53.668;9.578;2022-12-20T14:09:29;7.77;;;7.07;;
14377;SDS011;7272;53.668;9.578;2022-12-20T14:12:33;7.00;;;6.37;;
14377;SDS011;7272;53.668;9.578;2022-12-20T14:15:37;7.83;;;7.03;;
14377;SDS011;7272;53.668;9.578;2022-12-20T14:18:40;7.20;;;6.60;;
14377;SDS011;7272;53.668;9.578;2022-12-20T14:21:44;7.57;;;6.87;;
14377;SDS011;7272;53.668;9.578;2022-12-20T14:24:49;8.00;;;7.40;;
14377;SDS011;7272;53.668;9.578;2022-12-20T14:27:52;6.63;;;6.13;;
14377;SDS011;7272;53.668;9.578;2022-12-20T14:30:57;6.83;;;6.13;;
14377;SDS011;7272;53.668;9.578;2022-12-20T14:34:03;7.47;;;6.77;;
14377;SDS011;7272;53.668;9.578;2022-12-20T14:37:16;6.67;;;6.07;;
14377;SDS011;7272;53.668;9.578;2022-12-20T14:40:36;6.63;;;6.03;;
14377;SDS011;7272;53.668;9.578;2022-12-20T14:43:42;8.60;;;7.10;;
14377;SDS011;7272;53.668;9.578;2022-12-20T14:46:50;7.63;;;6.87;;
14377;SDS011;7272;53.668;9.578;2022-12-20T14:49:56;6.97;;;6.27;;
14377;SDS011;7272;53.668;9.578;2022-12-20T14:53:00;7.33;;;6.43;;
14377;SDS011;7272;53.668;9.578;2022-12-20T14:56:03;7.90;;;6.77;;
14377;SDS011;7272;53.668;9.578;2022-12-20T14:59:10;7.90;;;6.90;;
14377;SDS011;7272;53.668;9.578;2022-12-20T15:02:29;7.43;;;6.60;;
14377;SDS011;7272;53.668;9.578;2022-12-20T15:05:41;6.40;;;5.80;;
14377;SDS011;7272;53.668;9.578;2022-12-20T15:08:47;7.20;;;6.50;;
14377;SDS011;7272;53.668;9.578;2022-12-20T15:11:49;6.87;;;6.27;;
14377;SDS011;7272;53.668;9.578;2022-12-20T15:14:52;7.07;;;6.47;;
14377;SDS011;7272;53.668;9.578;2022-12-20T15:17:56;7.43;;;6.73;;
14377;SDS011;7272;53.668;9.578;2022-12-20T15:21:00;7.23;;;6.63;;
14377;SDS011;7272;53.668;9.578;2022-12-20T15:24:08;7.67;;;6.93;;
14377;SDS011;7272;53.668;9.578;2022-12-20T15:27:13;7.90;;;7.20;;
14377;SDS011;7272;53.668;9.578;2022-12-20T15:30:16;7.67;;;6.87;;
14377;SDS011;7272;53.668;9.578;2022-12-20T15:33:21;7.27;;;6.57;;
14377;SDS011;7272;53.668;9.578;2022-12-20T15:36:26;7.20;;;6.50;;
14377;SDS011;7272;53.668;9.578;2022-12-20T15:39:30;7.67;;;7.03;;
14377;SDS011;7272;53.668;9.578;2022-12-20T15:42:33;7.27;;;6.60;;
14377;SDS011;7272;53.668;9.578;2022-12-20T15:45:36;8.32;;;7.63;;
14377;SDS011;7272;53.668;9.578;2022-12-20T15:48:40;7.53;;;6.93;;
14377;SDS011;7272;53.668;9.578;2022-12-20T15:51:43;7.10;;;6.40;;
14377;SDS011;7272;53.668;9.578;2022-12-20T15:54:48;6.40;;;5.90;;
14377;SDS011;7272;53.668;9.578;2022-12-20T15:57:51;7.33;;;6.63;;
14377;SDS011;7272;53.668;9.578;2022-12-20T16:00:54;7.13;;;6.53;;
14377;SDS011;7272;53.668;9.578;2022-12-20T16:04:03;7.30;;;6.70;;
14377;SDS011;7272;53.668;9.578;2022-12-20T16:07:07;7.63;;;6.90;;
14377;SDS011;7272;53.668;9.578;2022-12-20T16:10:13;8.97;;;7.70;;
14377;SDS011;7272;53.668;9.578;2022-12-20T16:13:20;8.20;;;7.27;;
14377;SDS011;7272;53.668;9.578;2022-12-20T16:16:24;8.10;;;7.40;;
14377;SDS011;7272;53.668;9.578;2022-12-20T16:19:29;8.60;;;7.80;;
14377;SDS011;7272;53.668;9.578;2022-12-20T16:22:32;7.77;;;6.97;;
14377;SDS011;7272;53.668;9.578;2022-12-20T16:25:35;8.97;;;8.17;;
14377;SDS011;7272;53.668;9.578;2022-12-20T16:28:37;8.73;;;7.83;;
14377;SDS011;7272;53.668;9.578;2022-12-20T16:31:40;9.33;;;8.13;;
14377;SDS011;7272;53.668;9.578;2022-12-20T16:34:45;9.53;;;8.63;;
14377;SDS011;7272;53.668;9.578;2022-12-20T16:37:47;9.10;;;8.30;;
14377;SDS011;7272;53.668;9.578;2022-12-20T16:40:50;8.37;;;7.67;;
14377;SDS011;7272;53.668;9.578;2022-12-20T16:43:53;8.57;;;7.67;;
14377;SDS011;7272;53.668;9.578;2022-12-20T16:46:56;9.50;;;8.70;;
14377;SDS011;7272;53.668;9.578;2022-12-20T16:50:00;11.60;;;9.07;;
14377;SDS011;7272;53.668;9.578;2022-12-20T16:53:03;9.13;;;8.30;;
14377;SDS011;7272;53.668;9.578;2022-12-20T16:56:05;8.40;;;7.60;;
14377;SDS011;7272;53.668;9.578;2022-12-20T16:59:08;10.10;;;9.10;;
14377;SDS011;7272;53.668;9.578;2022-12-20T17:02:16;10.20;;;9.27;;
14377;SDS011;7272;53.668;9.578;2022-12-20T17:05:27;10.63;;;9.83;;
14377;SDS011;7272;53.668;9.578;2022-12-20T17:08:31;10.77;;;9.97;;
14377;SDS011;7272;53.668;9.578;2022-12-20T17:11:35;9.73;;;8.70;;
14377;SDS011;7272;53.668;9.578;2022-12-20T17:14:38;9.40;;;8.60;;
14377;SDS011;7272;53.668;9.578;2022-12-20T17:17:41;10.37;;;9.57;;
14377;SDS011;7272;53.668;9.578;2022-12-20T17:20:45;9.33;;;8.43;;
14377;SDS011;7272;53.668;9.578;2022-12-20T17:23:48;10.67;;;9.77;;
14377;SDS011;7272;53.668;9.578;2022-12-20T17:26:51;10.30;;;9.40;;
14377;SDS011;7272;53.668;9.578;2022-12-20T17:29:54;10.43;;;9.53;;
14377;SDS011;7272;53.668;9.578;2022-12-20T17:32:57;10.70;;;9.70;;
14377;SDS011;7272;53.668;9.578;2022-12-20T17:36:01;9.90;;;9.10;;
14377;SDS011;7272;53.668;9.578;2022-12-20T17:39:03;11.23;;;10.00;;
14377;SDS011;7272;53.668;9.578;2022-12-20T17:42:08;9.90;;;9.00;;
14377;SDS011;7272;53.668;9.578;2022-12-20T17:45:19;10.57;;;9.67;;
14377;SDS011;7272;53.668;9.578;2022-12-20T17:48:25;9.77;;;8.97;;
14377;SDS011;7272;53.668;9.578;2022-12-20T17:51:29;10.80;;;9.87;;
14377;SDS011;7272;53.668;9.578;2022-12-20T17:54:31;9.63;;;8.83;;
14377;SDS011;7272;53.668;9.578;2022-12-20T17:57:34;10.40;;;9.50;;
14377;SDS011;7272;53.668;9.578;2022-12-20T18:00:37;10.17;;;9.27;;
14377;SDS011;7272;53.668;9.578;2022-12-20T18:03:39;10.37;;;9.33;;
14377;SDS011;7272;53.668;9.578;2022-12-20T18:06:45;9.97;;;9.07;;
14377;SDS011;7272;53.668;9.578;2022-12-20T18:09:47;10.90;;;9.53;;
14377;SDS011;7272;53.668;9.578;2022-12-20T18:12:51;11.27;;;10.27;;
14377;SDS011;7272;53.668;9.578;2022-12-20T18:15:54;11.60;;;10.60;;
14377;SDS011;7272;53.668;9.578;2022-12-20T18:18:56;11.13;;;10.23;;
14377;SDS011;7272;53.668;9.578;2022-12-20T18:22:00;13.80;;;12.70;;
14377;SDS011;7272;53.668;9.578;2022-12-20T18:25:04;12.38;;;11.38;;
14377;SDS011;7272;53.668;9.578;2022-12-20T18:28:08;11.17;;;10.27;;
14377;SDS011;7272;53.668;9.578;2022-12-20T18:31:12;11.17;;;10.17;;
14377;SDS011;7272;53.668;9.578;2022-12-20T18:34:16;10.73;;;9.83;;
14377;SDS011;7272;53.668;9.578;2022-12-20T18:37:20;11.67;;;10.50;;
14377;SDS011;7272;53.668;9.578;2022-12-20T18:40:22;11.70;;;10.60;;
14377;SDS011;7272;53.668;9.578;2022-12-20T18:43:25;12.63;;;11.33;;
14377;SDS011;7272;53.668;9.578;2022-12-20T18:46:28;11.97;;;10.90;;
14377;SDS011;7272;53.668;9.578;2022-12-20T18:49:31;11.70;;;10.70;;
14377;SDS011;7272;53.668;9.578;2022-12-20T18:52:35;12.60;;;11.17;;
14377;SDS011;7272;53.668;9.578;2022-12-20T18:55:40;12.77;;;11.77;;
14377;SDS011;7272;53.668;9.578;2022-12-20T18:58:45;13.07;;;11.80;;
14377;SDS011;7272;53.668;9.578;2022-12-20T19:01:48;14.27;;;11.17;;
14377;SDS011;7272;53.668;9.578;2022-12-20T19:04:52;12.33;;;11.30;;
14377;SDS011;7272;53.668;9.578;2022-12-20T19:07:56;12.50;;;11.03;;
14377;SDS011;7272;53.668;9.578;2022-12-20T19:10:59;13.03;;;11.67;;
14377;SDS011;7272;53.668;9.578;2022-12-20T19:14:06;13.00;;;11.90;;
14377;SDS011;7272;53.668;9.578;2022-12-20T19:17:09;13.77;;;12.43;;